createdAt,value
2022-11-12T00:03:33.539Z,14.77
2022-11-12T00:06:00.374Z,12.88
2022-11-12T00:08:27.323Z,13.85
2022-11-12T00:10:54.271Z,13.48
2022-11-12T00:13:21.003Z,12.40
2022-11-12T00:15:47.945Z,14.60
2022-11-12T00:18:14.861Z,15.43
2022-11-12T00:20:41.782Z,16.98
2022-11-12T00:23:09.107Z,16.80
2022-11-12T00:25:36.455Z,16.40
2022-11-12T00:28:08.602Z,14.30
2022-11-12T00:30:38.714Z,17.60
2022-11-12T00:35:33.367Z,14.95
2022-11-12T00:38:01.208Z,15.95
2022-11-12T00:40:29.077Z,14.45
2022-11-12T00:42:56.287Z,17.20
2022-11-12T00:45:23.311Z,15.23
2022-11-12T00:47:50.044Z,16.63
2022-11-12T00:50:16.991Z,16.77
2022-11-12T00:52:44.213Z,15.40
2022-11-12T00:55:11.430Z,14.55
2022-11-12T00:57:38.256Z,15.35
2022-11-12T01:00:08.501Z,14.75
2022-11-12T01:02:42.197Z,14.65
2022-11-12T01:05:10.456Z,15.43
2022-11-12T01:07:37.243Z,18.65
2022-11-12T01:10:05.349Z,14.60
2022-11-12T01:12:32.298Z,18.48
2022-11-12T01:14:59.549Z,15.48
2022-11-12T01:17:26.466Z,15.95
2022-11-12T01:19:53.242Z,15.45
2022-11-12T01:22:19.979Z,15.70
2022-11-12T01:24:46.666Z,15.02
2022-11-12T01:27:13.423Z,14.35
2022-11-12T01:29:41.138Z,15.30
2022-11-12T01:32:08.197Z,15.40
2022-11-12T01:34:35.174Z,20.42
2022-11-12T01:37:02.942Z,13.90
2022-11-12T01:39:29.630Z,14.95
2022-11-12T01:41:56.413Z,14.18
2022-11-12T01:44:27.145Z,13.90
2022-11-12T01:47:03.083Z,15.57
2022-11-12T01:49:41.705Z,13.32
2022-11-12T01:52:21.353Z,14.23
2022-11-12T01:54:51.740Z,14.85
2022-11-12T01:57:33.462Z,16.45
2022-11-12T02:00:06.681Z,13.23
2022-11-12T02:02:35.037Z,13.18
2022-11-12T02:05:02.995Z,15.45
2022-11-12T02:07:31.128Z,12.80
2022-11-12T02:10:00.033Z,12.15
2022-11-12T02:12:45.742Z,13.40
2022-11-12T02:15:12.639Z,15.00
2022-11-12T02:17:39.750Z,13.00
2022-11-12T02:20:10.768Z,11.80
2022-11-12T02:22:37.495Z,14.35
2022-11-12T02:25:05.216Z,14.38
2022-11-12T02:27:32.263Z,16.73
2022-11-12T02:29:59.051Z,13.35
2022-11-12T02:32:25.755Z,12.77
2022-11-12T02:34:52.464Z,13.82
2022-11-12T02:37:19.194Z,13.55
2022-11-12T02:39:45.852Z,13.85
2022-11-12T02:42:12.542Z,13.07
2022-11-12T02:44:39.353Z,13.98
2022-11-12T02:47:06.134Z,13.43
2022-11-12T02:49:32.880Z,11.98
2022-11-12T02:51:59.631Z,12.05
2022-11-12T02:54:26.334Z,17.83
2022-11-12T02:56:53.133Z,12.70
2022-11-12T02:59:19.846Z,14.52
2022-11-12T03:01:46.520Z,11.88
2022-11-12T03:04:13.281Z,10.93
2022-11-12T03:06:40.084Z,10.15
2022-11-12T03:09:06.893Z,11.50
2022-11-12T03:11:33.870Z,11.10
2022-11-12T03:14:02.498Z,12.38
2022-11-12T03:16:29.203Z,11.15
2022-11-12T03:18:55.982Z,9.15
2022-11-12T03:21:22.700Z,8.75
2022-11-12T03:23:49.418Z,10.05
2022-11-12T03:26:16.137Z,12.85
2022-11-12T03:28:42.831Z,16.85
2022-11-12T03:31:12.062Z,10.07
2022-11-12T03:33:38.786Z,9.17
2022-11-12T03:36:05.739Z,9.18
2022-11-12T03:38:32.460Z,10.25
2022-11-12T03:40:59.148Z,12.48
2022-11-12T03:43:25.978Z,10.80
2022-11-12T03:45:52.673Z,10.73
2022-11-12T03:48:19.437Z,11.02
2022-11-12T03:50:46.153Z,10.80
2022-11-12T03:53:12.991Z,8.75
2022-11-12T03:55:39.697Z,10.75
2022-11-12T03:58:06.392Z,9.70
2022-11-12T04:00:33.207Z,9.85
2022-11-12T04:03:00.346Z,9.93
2022-11-12T04:05:46.066Z,10.55
2022-11-12T04:08:32.825Z,11.30
2022-11-12T04:10:59.821Z,9.05
2022-11-12T04:13:29.622Z,10.90
2022-11-12T04:16:34.924Z,10.05
2022-11-12T04:19:21.892Z,10.27
2022-11-12T04:21:51.395Z,10.10
2022-11-12T04:24:39.332Z,11.25
2022-11-12T04:27:07.513Z,10.88
2022-11-12T04:29:52.555Z,11.65
2022-11-12T04:32:19.437Z,9.73
2022-11-12T04:34:46.189Z,11.35
2022-11-12T04:37:13.053Z,11.25
2022-11-12T04:39:39.746Z,11.18
2022-11-12T04:42:27.369Z,11.18
2022-11-12T04:44:59.984Z,14.30
2022-11-12T04:47:35.786Z,9.85
2022-11-12T04:50:15.078Z,10.82
2022-11-12T04:52:41.778Z,13.35
2022-11-12T04:55:09.172Z,10.52
2022-11-12T04:57:36.702Z,10.20
2022-11-12T05:00:06.077Z,12.00
2022-11-12T05:02:32.733Z,9.68
2022-11-12T05:04:59.404Z,9.52
2022-11-12T05:07:26.121Z,9.18
2022-11-12T05:09:52.835Z,11.60
2022-11-12T05:12:19.840Z,10.05
2022-11-12T05:14:46.555Z,11.60
2022-11-12T05:17:13.212Z,10.13
2022-11-12T05:19:40.052Z,9.93
2022-11-12T05:22:07.351Z,8.85
2022-11-12T05:24:42.636Z,9.88
2022-11-12T05:27:15.915Z,9.18
2022-11-12T05:29:43.082Z,10.50
2022-11-12T05:32:13.180Z,9.27
2022-11-12T05:37:11.701Z,16.98
2022-11-12T05:39:38.501Z,9.50
2022-11-12T05:42:13.036Z,8.43
2022-11-12T05:44:41.006Z,13.15
2022-11-12T05:47:07.968Z,12.82
2022-11-12T05:49:34.683Z,10.27
2022-11-12T05:52:01.340Z,7.93
2022-11-12T05:54:28.157Z,8.52
2022-11-12T05:56:54.873Z,9.18
2022-11-12T05:59:22.377Z,6.50
2022-11-12T06:01:49.253Z,8.75
2022-11-12T06:04:16.666Z,8.18
2022-11-12T06:06:44.388Z,7.10
2022-11-12T06:09:11.733Z,6.72
2022-11-12T06:11:39.345Z,13.63
2022-11-12T06:14:06.530Z,8.23
2022-11-12T06:16:33.751Z,7.75
2022-11-12T06:19:00.542Z,12.63
2022-11-12T06:21:28.019Z,8.45
2022-11-12T06:23:58.355Z,14.30
2022-11-12T06:26:27.102Z,7.43
2022-11-12T06:28:54.393Z,8.88
2022-11-12T06:31:21.872Z,8.27
2022-11-12T06:33:48.858Z,8.85
2022-11-12T06:36:17.884Z,7.80
2022-11-12T06:38:45.532Z,7.80
2022-11-12T06:41:13.708Z,10.43
2022-11-12T06:43:41.231Z,20.67
2022-11-12T06:46:14.361Z,12.70
2022-11-12T06:48:41.611Z,9.00
2022-11-12T06:51:11.914Z,25.52
2022-11-12T06:53:38.715Z,8.15
2022-11-12T06:56:07.251Z,7.75
2022-11-12T06:58:34.420Z,22.52
2022-11-12T07:01:11.765Z,6.03
2022-11-12T07:03:40.250Z,8.25
2022-11-12T07:06:11.744Z,6.18
2022-11-12T07:08:39.291Z,6.88
2022-11-12T07:11:06.889Z,10.27
2022-11-12T07:13:35.352Z,16.83
2022-11-12T07:16:02.480Z,10.63
2022-11-12T07:18:29.891Z,33.33
2022-11-12T07:21:05.172Z,25.17
2022-11-12T07:23:33.523Z,20.80
2022-11-12T07:26:05.394Z,29.27
2022-11-12T07:28:32.442Z,10.20
2022-11-12T07:31:04.492Z,7.95
2022-11-12T07:33:31.596Z,7.63
2022-11-12T07:36:00.549Z,8.15
2022-11-12T07:38:28.874Z,7.95
2022-11-12T07:41:01.868Z,15.73
2022-11-12T07:43:30.540Z,8.20
2022-11-12T07:46:12.084Z,11.27
2022-11-12T07:48:39.872Z,8.88
2022-11-12T07:51:16.589Z,8.98
2022-11-12T07:53:45.015Z,6.70
2022-11-12T07:56:14.341Z,7.82
2022-11-12T07:58:41.190Z,8.88
2022-11-12T08:01:23.157Z,7.00
2022-11-12T08:03:49.982Z,7.13
2022-11-12T08:06:16.916Z,6.18
2022-11-12T08:08:43.740Z,7.63
2022-11-12T08:11:10.720Z,6.03
2022-11-12T08:13:37.652Z,6.45
2022-11-12T08:16:04.723Z,6.80
2022-11-12T08:18:32.121Z,8.25
2022-11-12T08:21:04.133Z,7.57
2022-11-12T08:23:31.022Z,6.93
2022-11-12T08:25:59.568Z,6.18
2022-11-12T08:28:26.799Z,8.63
2022-11-12T08:30:54.302Z,12.73
2022-11-12T08:33:21.213Z,8.05
2022-11-12T08:35:47.996Z,7.00
2022-11-12T08:38:14.994Z,11.90
2022-11-12T08:40:41.739Z,9.40
2022-11-12T08:43:10.791Z,8.32
2022-11-12T08:45:39.560Z,6.47
2022-11-12T08:48:09.327Z,6.78
2022-11-12T08:50:36.727Z,6.30
2022-11-12T08:53:05.712Z,6.65
2022-11-12T08:55:35.826Z,5.40
2022-11-12T09:00:34.796Z,6.28
2022-11-12T09:03:02.474Z,6.35
2022-11-12T09:05:29.521Z,6.90
2022-11-12T09:08:01.172Z,5.72
2022-11-12T09:10:28.875Z,5.22
2022-11-12T09:12:55.664Z,7.90
2022-11-12T09:15:37.500Z,7.68
2022-11-12T09:18:08.054Z,12.38
2022-11-12T09:20:35.006Z,7.95
2022-11-12T09:23:13.243Z,6.68
2022-11-12T09:25:41.071Z,5.32
2022-11-12T09:28:18.976Z,6.25
2022-11-12T09:30:50.364Z,4.95
2022-11-12T09:33:28.411Z,5.30
2022-11-12T09:35:55.672Z,6.75
2022-11-12T09:38:22.771Z,6.35
2022-11-12T09:40:52.179Z,5.78
2022-11-12T09:43:19.116Z,9.43
2022-11-12T09:46:06.352Z,4.80
2022-11-12T09:48:43.113Z,5.95
2022-11-12T09:51:21.801Z,8.88
2022-11-12T09:53:55.393Z,6.32
2022-11-12T09:56:22.652Z,7.45
2022-11-12T09:58:50.682Z,8.45
2022-11-12T10:01:17.796Z,7.72
2022-11-12T10:03:44.559Z,8.52
2022-11-12T10:06:22.439Z,8.60
2022-11-12T10:08:49.110Z,9.77
2022-11-12T10:12:03.894Z,11.32
2022-11-12T10:14:36.750Z,11.30
2022-11-12T10:17:18.599Z,10.75
2022-11-12T10:20:00.278Z,15.05
2022-11-12T10:22:48.573Z,9.80
2022-11-12T10:25:20.167Z,8.43
2022-11-12T10:27:49.488Z,7.72
2022-11-12T10:30:19.792Z,6.38
2022-11-12T10:32:48.073Z,6.78
2022-11-12T10:35:20.950Z,7.88
2022-11-12T10:37:53.637Z,6.72
2022-11-12T10:40:44.119Z,8.80
2022-11-12T10:43:16.973Z,7.20
2022-11-12T10:45:45.740Z,6.75
2022-11-12T10:48:30.669Z,7.97
2022-11-12T10:50:57.742Z,5.80
2022-11-12T10:53:36.074Z,7.47
2022-11-12T10:56:05.430Z,6.40
2022-11-12T10:58:32.481Z,5.65
2022-11-12T11:01:05.169Z,6.43
2022-11-12T11:03:44.463Z,6.45
2022-11-12T11:06:26.017Z,5.55
2022-11-12T11:09:07.747Z,6.22
2022-11-12T11:11:34.770Z,8.07
2022-11-12T11:14:20.338Z,6.70
2022-11-12T11:16:55.399Z,6.95
2022-11-12T11:19:22.962Z,7.00
2022-11-12T11:21:49.671Z,6.70
2022-11-12T11:24:35.782Z,7.93
2022-11-12T11:27:28.697Z,7.93
2022-11-12T11:29:58.472Z,10.02
2022-11-12T11:32:51.529Z,7.72
2022-11-12T11:35:43.056Z,8.48
2022-11-12T11:38:31.068Z,8.60
2022-11-12T11:41:30.453Z,8.57
2022-11-12T11:44:35.942Z,10.38
2022-11-12T11:47:09.715Z,10.57
2022-11-12T11:50:23.883Z,10.00
2022-11-12T11:53:15.850Z,9.40
2022-11-12T11:56:09.851Z,9.48
2022-11-12T11:58:56.736Z,9.60
2022-11-12T12:02:01.320Z,9.40
2022-11-12T12:04:48.704Z,9.10
2022-11-12T12:07:29.768Z,8.73
2022-11-12T12:10:46.243Z,8.77
2022-11-12T12:13:28.831Z,10.63
2022-11-12T12:15:58.616Z,10.95
2022-11-12T12:18:38.437Z,12.20
2022-11-12T12:21:18.672Z,12.25
2022-11-12T12:23:55.422Z,9.10
2022-11-12T12:26:35.482Z,8.70
2022-11-12T12:29:07.762Z,9.85
2022-11-12T12:31:42.139Z,10.45
2022-11-12T12:34:26.827Z,9.43
2022-11-12T12:37:04.411Z,9.60
2022-11-12T12:40:01.546Z,9.30
2022-11-12T12:42:37.729Z,8.43
2022-11-12T12:45:44.257Z,9.05
2022-11-12T12:48:25.279Z,9.38
2022-11-12T12:50:53.819Z,11.00
2022-11-12T12:53:29.815Z,10.75
2022-11-12T12:55:59.180Z,11.13
2022-11-12T12:58:28.555Z,10.45
2022-11-12T13:01:08.233Z,11.35
2022-11-12T13:03:44.064Z,11.43
2022-11-12T13:06:24.240Z,14.85
2022-11-12T13:11:59.046Z,11.15
2022-11-12T13:14:31.771Z,10.15
2022-11-12T13:17:01.726Z,10.10
2022-11-12T13:19:32.175Z,10.60
2022-11-12T13:22:36.948Z,9.63
2022-11-12T13:25:13.476Z,9.77
2022-11-12T13:27:46.090Z,8.48
2022-11-12T13:30:18.552Z,9.32
2022-11-12T13:32:51.052Z,9.80
2022-11-12T13:35:17.928Z,12.65
2022-11-12T13:37:53.413Z,11.35
2022-11-12T13:40:38.827Z,10.50
2022-11-12T13:43:17.969Z,8.15
2022-11-12T13:46:12.283Z,11.77
2022-11-12T13:48:45.864Z,10.10
2022-11-12T13:51:25.471Z,11.18
2022-11-12T13:53:52.296Z,8.95
2022-11-12T13:56:30.992Z,11.90
2022-11-12T13:59:18.291Z,11.20
2022-11-12T14:01:47.547Z,14.23
2022-11-12T14:04:16.868Z,14.60
2022-11-12T14:06:52.262Z,10.70
2022-11-12T14:09:29.925Z,20.02
2022-11-12T14:11:56.685Z,11.43
2022-11-12T14:14:54.202Z,11.38
2022-11-12T14:17:23.851Z,10.43
2022-11-12T14:20:06.023Z,10.00
2022-11-12T14:22:50.855Z,10.23
2022-11-12T14:25:27.953Z,11.20
2022-11-12T14:27:56.112Z,20.42
2022-11-12T14:30:26.213Z,13.95
2022-11-12T14:32:58.325Z,11.43
2022-11-12T14:35:27.362Z,12.60
2022-11-12T14:37:59.220Z,12.02
2022-11-12T14:40:28.814Z,9.32
2022-11-12T14:42:55.799Z,10.70
2022-11-12T14:45:23.891Z,11.43
2022-11-12T14:47:53.488Z,13.80
2022-11-12T14:50:25.356Z,12.95
2022-11-12T14:53:00.540Z,10.27
2022-11-12T14:55:31.836Z,11.23
2022-11-12T14:57:59.813Z,10.63
2022-11-12T15:00:32.497Z,13.88
2022-11-12T15:03:02.111Z,9.82
2022-11-12T15:05:29.120Z,13.48
2022-11-12T15:08:08.572Z,11.40
2022-11-12T15:10:35.328Z,12.23
2022-11-12T15:13:22.489Z,9.90
2022-11-12T15:16:05.322Z,13.88
2022-11-12T15:18:34.016Z,12.93
2022-11-12T15:21:27.851Z,12.27
2022-11-12T15:24:03.435Z,13.55
2022-11-12T15:26:43.815Z,9.88
2022-11-12T15:29:10.631Z,10.40
2022-11-12T15:31:48.521Z,10.45
2022-11-12T15:34:43.820Z,10.65
2022-11-12T15:37:12.125Z,9.35
2022-11-12T15:40:11.455Z,9.77
2022-11-12T15:42:40.242Z,9.93
2022-11-12T15:45:15.930Z,10.63
2022-11-12T15:47:42.801Z,9.82
2022-11-12T15:50:22.829Z,12.93
2022-11-12T15:52:50.405Z,11.00
2022-11-12T15:55:19.117Z,12.90
2022-11-12T15:57:51.698Z,11.35
2022-11-12T16:00:33.131Z,13.02
2022-11-12T16:03:12.017Z,10.52
2022-11-12T16:05:39.082Z,10.48
2022-11-12T16:08:06.164Z,8.73
2022-11-12T16:10:33.047Z,13.13
2022-11-12T16:13:01.379Z,9.00
2022-11-12T16:15:28.239Z,10.35
2022-11-12T16:17:56.226Z,9.52
2022-11-12T16:20:34.378Z,8.15
2022-11-12T16:23:01.545Z,13.07
2022-11-12T16:25:31.234Z,11.05
2022-11-12T16:27:58.499Z,11.07
2022-11-12T16:30:28.428Z,10.07
2022-11-12T16:32:59.300Z,8.55
2022-11-12T16:35:27.018Z,10.55
2022-11-12T16:37:55.319Z,8.15
2022-11-12T16:40:25.208Z,8.57
2022-11-12T16:42:52.338Z,7.80
2022-11-12T16:45:21.251Z,10.40
2022-11-12T16:47:50.175Z,8.65
2022-11-12T16:50:21.031Z,10.13
2022-11-12T16:52:48.654Z,10.63
2022-11-12T16:55:16.145Z,9.38
2022-11-12T16:57:43.592Z,9.60
2022-11-12T17:00:16.151Z,8.70
2022-11-12T17:02:46.218Z,8.48
2022-11-12T17:05:20.021Z,10.70
2022-11-12T17:07:47.453Z,10.20
2022-11-12T17:10:15.278Z,11.25
2022-11-12T17:12:43.670Z,13.90
2022-11-12T17:15:10.535Z,11.63
2022-11-12T17:17:37.656Z,12.77
2022-11-12T17:20:04.860Z,12.07
2022-11-12T17:22:31.957Z,13.88
2022-11-12T17:25:01.501Z,15.20
2022-11-12T17:27:28.627Z,12.40
2022-11-12T17:29:55.900Z,14.95
2022-11-12T17:32:24.001Z,12.05
2022-11-12T17:34:52.618Z,13.15
2022-11-12T17:37:21.283Z,12.10
2022-11-12T17:39:48.414Z,14.57
2022-11-12T17:42:15.406Z,14.02
2022-11-12T17:44:42.500Z,13.85
2022-11-12T17:47:10.081Z,12.98
2022-11-12T17:49:37.124Z,15.00
2022-11-12T17:52:04.898Z,15.23
2022-11-12T17:54:32.274Z,12.45
2022-11-12T17:56:59.757Z,20.52
2022-11-12T17:59:27.733Z,23.05
2022-11-12T18:01:55.036Z,17.98
2022-11-12T18:04:23.799Z,16.90
2022-11-12T18:06:51.495Z,33.53
2022-11-12T18:09:19.217Z,29.63
2022-11-12T18:11:49.507Z,22.75
2022-11-12T18:14:17.618Z,16.45
2022-11-12T18:16:45.433Z,13.45
2022-11-12T18:19:15.986Z,16.63
2022-11-12T18:21:43.258Z,14.98
2022-11-12T18:24:15.859Z,15.10
2022-11-12T18:26:44.449Z,12.07
2022-11-12T18:29:12.891Z,14.93
2022-11-12T18:31:41.013Z,14.20
2022-11-12T18:34:11.500Z,15.13
2022-11-12T18:36:38.804Z,21.15
2022-11-12T18:39:06.817Z,18.00
2022-11-12T18:41:34.702Z,18.88
2022-11-12T18:44:02.404Z,14.93
2022-11-12T18:46:29.620Z,13.48
2022-11-12T18:48:57.113Z,18.75
2022-11-12T18:51:24.679Z,16.42
2022-11-12T18:53:52.263Z,16.70
2022-11-12T18:56:21.185Z,14.25
2022-11-12T18:58:49.857Z,17.20
2022-11-12T19:01:21.474Z,17.35
2022-11-12T19:03:52.608Z,19.40
2022-11-12T19:06:20.929Z,18.73
2022-11-12T19:08:48.282Z,22.30
2022-11-12T19:11:18.981Z,23.17
2022-11-12T19:13:49.826Z,38.03
2022-11-12T19:16:20.548Z,47.55
2022-11-12T19:18:48.243Z,44.83
2022-11-12T19:21:17.991Z,30.80
2022-11-12T19:23:51.312Z,22.02
2022-11-12T19:26:22.612Z,31.90
2022-11-12T19:28:50.742Z,26.27
2022-11-12T19:31:20.578Z,21.33
2022-11-12T19:33:48.319Z,26.95
2022-11-12T19:36:18.052Z,20.30
2022-11-12T19:38:46.896Z,18.38
2022-11-12T19:41:19.375Z,19.23
2022-11-12T19:43:49.217Z,16.33
2022-11-12T19:46:16.255Z,15.45
2022-11-12T19:48:43.446Z,14.50
2022-11-12T19:51:12.000Z,15.77
2022-11-12T19:53:42.178Z,16.73
2022-11-12T19:58:36.152Z,19.00
2022-11-12T20:01:10.715Z,17.92
2022-11-12T20:03:38.388Z,26.83
2022-11-12T20:06:12.731Z,16.42
2022-11-12T20:08:40.681Z,12.50
2022-11-12T20:11:07.842Z,14.93
2022-11-12T20:13:34.648Z,14.48
2022-11-12T20:16:07.731Z,11.65
2022-11-12T20:18:35.314Z,13.93
2022-11-12T20:21:05.603Z,12.57
2022-11-12T20:23:34.816Z,13.43
2022-11-12T20:26:09.313Z,12.53
2022-11-12T20:28:39.563Z,12.82
2022-11-12T20:31:07.729Z,14.13
2022-11-12T20:33:39.372Z,13.93
2022-11-12T20:36:11.131Z,14.88
2022-11-12T20:38:40.056Z,15.90
2022-11-12T20:41:08.180Z,14.07
2022-11-12T20:43:35.745Z,16.27
2022-11-12T20:46:02.585Z,14.02
2022-11-12T20:48:29.991Z,14.30
2022-11-12T20:51:25.079Z,15.38
2022-11-12T20:53:58.927Z,15.15
2022-11-12T20:56:28.018Z,15.13
2022-11-12T20:58:55.678Z,11.88
2022-11-12T21:01:27.169Z,12.10
2022-11-12T21:03:54.752Z,14.30
2022-11-12T21:06:24.618Z,11.45
2022-11-12T21:08:51.842Z,11.18
2022-11-12T21:11:21.677Z,14.38
2022-11-12T21:13:48.721Z,13.93
2022-11-12T21:16:16.337Z,18.85
2022-11-12T21:18:44.196Z,23.10
2022-11-12T21:21:15.306Z,14.55
2022-11-12T21:23:43.724Z,12.95
2022-11-12T21:26:18.591Z,12.30
2022-11-12T21:28:48.785Z,16.05
2022-11-12T21:31:38.014Z,21.05
2022-11-12T21:34:05.044Z,14.33
2022-11-12T21:36:34.547Z,22.35
2022-11-12T21:39:03.139Z,20.75
2022-11-12T21:41:32.203Z,16.60
2022-11-12T21:43:59.421Z,16.80
2022-11-12T21:46:28.767Z,18.75
2022-11-12T21:48:56.357Z,15.57
2022-11-12T21:51:29.172Z,13.77
2022-11-12T21:54:00.791Z,14.95
2022-11-12T21:56:28.797Z,13.68
2022-11-12T21:59:00.482Z,16.33
2022-11-12T22:01:29.973Z,15.05
2022-11-12T22:03:59.637Z,14.65
2022-11-12T22:06:29.182Z,14.40
2022-11-12T22:08:57.398Z,14.07
2022-11-12T22:11:25.534Z,12.85
2022-11-12T22:13:52.393Z,15.50
2022-11-12T22:16:21.126Z,13.35
2022-11-12T22:18:50.008Z,12.77
2022-11-12T22:21:21.499Z,17.55
2022-11-12T22:23:48.586Z,24.23
2022-11-12T22:26:18.141Z,16.65
2022-11-12T22:28:45.090Z,22.73
2022-11-12T22:31:14.244Z,13.27
2022-11-12T22:33:42.363Z,41.00
2022-11-12T22:36:12.340Z,15.45
2022-11-12T22:38:41.412Z,12.82
2022-11-12T22:41:12.226Z,13.52
2022-11-12T22:43:39.072Z,17.80
2022-11-12T22:46:12.885Z,14.57
2022-11-12T22:48:40.442Z,17.50
2022-11-12T22:51:12.216Z,14.15
2022-11-12T22:53:39.317Z,12.68
2022-11-12T22:56:12.261Z,11.90
2022-11-12T22:58:41.165Z,25.52
2022-11-12T23:01:11.611Z,13.40
2022-11-12T23:03:38.477Z,14.93
2022-11-12T23:06:06.556Z,12.82
2022-11-12T23:08:36.253Z,22.15
2022-11-12T23:11:05.854Z,12.73
2022-11-12T23:13:33.052Z,12.10
2022-11-12T23:15:59.973Z,15.02
2022-11-12T23:18:27.134Z,14.10
2022-11-12T23:20:54.039Z,13.82
2022-11-12T23:23:20.785Z,11.45
2022-11-12T23:25:47.542Z,10.48
2022-11-12T23:28:14.281Z,9.63
2022-11-12T23:30:41.013Z,13.45
2022-11-12T23:33:07.781Z,11.23
2022-11-12T23:35:34.616Z,10.45
2022-11-12T23:38:01.332Z,8.52
2022-11-12T23:40:31.081Z,8.70
2022-11-12T23:42:58.092Z,10.02
2022-11-12T23:45:24.900Z,7.93
2022-11-12T23:47:51.865Z,9.48
2022-11-12T23:50:18.730Z,10.02
2022-11-12T23:52:45.476Z,8.50
2022-11-12T23:55:12.498Z,23.67
2022-11-12T23:57:39.241Z,15.57
